createdAt,value
2024-03-02T00:04:21.505Z,100.00
2024-03-02T00:09:23.330Z,100.00
2024-03-02T00:14:25.783Z,100.00
2024-03-02T00:19:27.647Z,100.00
2024-03-02T00:24:36.566Z,100.00
2024-03-02T00:29:38.425Z,100.00
2024-03-02T00:34:40.231Z,100.00
2024-03-02T00:39:42.079Z,100.00
2024-03-02T00:44:44.020Z,100.00
2024-03-02T00:49:50.248Z,100.00
2024-03-02T00:54:52.574Z,100.00
2024-03-02T00:59:54.408Z,100.00
2024-03-02T01:04:56.274Z,100.00
2024-03-02T01:09:58.478Z,100.00
2024-03-02T01:15:00.331Z,100.00
2024-03-02T01:20:02.246Z,100.00
2024-03-02T01:25:04.421Z,100.00
2024-03-02T01:30:07.382Z,100.00
2024-03-02T01:35:11.448Z,100.00
2024-03-02T01:40:13.548Z,100.00
2024-03-02T01:45:17.412Z,100.00
2024-03-02T01:50:30.700Z,100.00
2024-03-02T02:00:55.915Z,100.00
2024-03-02T02:05:57.789Z,100.00
2024-03-02T02:11:00.035Z,100.00
2024-03-02T02:16:08.973Z,100.00
2024-03-02T02:21:10.742Z,100.00
2024-03-02T02:26:12.512Z,100.00
2024-03-02T02:31:15.198Z,100.00
2024-03-02T02:36:16.993Z,100.00
2024-03-02T02:41:18.917Z,100.00
2024-03-02T02:46:20.742Z,100.00
2024-03-02T02:51:22.538Z,100.00
2024-03-02T02:56:24.499Z,100.00
2024-03-02T03:01:26.953Z,100.00
2024-03-02T03:06:28.817Z,100.00
2024-03-02T03:11:30.622Z,100.00
2024-03-02T03:16:32.365Z,100.00
2024-03-02T03:21:34.109Z,100.00
2024-03-02T03:26:37.904Z,100.00
2024-03-02T03:31:39.645Z,100.00
2024-03-02T03:36:41.458Z,100.00
2024-03-02T03:41:43.243Z,100.00
2024-03-02T03:46:44.984Z,100.00
2024-03-02T03:51:46.793Z,100.00
2024-03-02T03:56:48.577Z,100.00
2024-03-02T04:01:50.405Z,100.00
2024-03-02T04:06:52.385Z,100.00
2024-03-02T04:11:54.364Z,100.00
2024-03-02T04:16:56.734Z,100.00
2024-03-02T04:22:00.086Z,100.00
2024-03-02T04:27:03.593Z,100.00
2024-03-02T04:32:05.804Z,100.00
2024-03-02T04:37:07.600Z,100.00
2024-03-02T04:42:09.433Z,100.00
2024-03-02T04:47:11.186Z,100.00
2024-03-02T04:52:13.058Z,100.00
2024-03-02T04:57:14.793Z,100.00
2024-03-02T05:02:16.509Z,100.00
2024-03-02T05:07:18.316Z,100.00
2024-03-02T05:12:46.361Z,100.00
2024-03-02T05:17:48.368Z,100.00
2024-03-02T05:22:50.817Z,100.00
2024-03-02T05:27:52.801Z,100.00
2024-03-02T05:32:54.569Z,100.00
2024-03-02T05:37:56.288Z,100.00
2024-03-02T05:42:58.127Z,100.00
2024-03-02T05:48:00.017Z,100.00
2024-03-02T05:53:01.952Z,100.00
2024-03-02T05:58:28.884Z,100.00
2024-03-02T06:03:30.635Z,100.00
2024-03-02T06:08:32.511Z,100.00
2024-03-02T06:13:34.270Z,100.00
2024-03-02T06:18:36.078Z,100.00
2024-03-02T06:23:37.862Z,100.00
2024-03-02T06:28:39.828Z,100.00
2024-03-02T06:33:42.882Z,100.00
2024-03-02T06:38:44.726Z,100.00
2024-03-02T06:43:46.451Z,100.00
2024-03-02T06:48:48.198Z,100.00
2024-03-02T06:53:49.993Z,100.00
2024-03-02T06:58:51.728Z,100.00
2024-03-02T07:03:53.605Z,100.00
2024-03-02T07:08:55.378Z,100.00
2024-03-02T07:13:57.283Z,100.00
2024-03-02T07:19:00.172Z,100.00
2024-03-02T07:24:04.185Z,100.00
2024-03-02T07:29:05.957Z,100.00
2024-03-02T07:34:07.724Z,100.00
2024-03-02T07:39:09.533Z,100.00
2024-03-02T07:44:12.467Z,100.00
2024-03-02T07:49:15.271Z,100.00
2024-03-02T07:54:17.017Z,100.00
2024-03-02T07:59:18.892Z,100.00
2024-03-02T08:04:20.625Z,100.00
2024-03-02T08:09:22.391Z,100.00
2024-03-02T08:14:24.181Z,100.00
2024-03-02T08:19:25.970Z,100.00
2024-03-02T08:24:27.821Z,100.00
2024-03-02T08:29:29.646Z,100.00
2024-03-02T08:34:31.413Z,100.00
2024-03-02T08:39:33.191Z,100.00
2024-03-02T08:44:35.004Z,98.25
2024-03-02T08:49:36.756Z,96.86
2024-03-02T08:54:41.651Z,95.73
2024-03-02T08:59:43.567Z,92.90
2024-03-02T09:04:45.443Z,91.54
2024-03-02T09:09:47.316Z,88.90
2024-03-02T09:14:49.302Z,87.75
2024-03-02T09:19:53.911Z,85.54
2024-03-02T09:24:55.826Z,87.24
2024-03-02T09:29:57.695Z,87.36
2024-03-02T09:34:59.618Z,86.86
2024-03-02T09:40:01.994Z,85.39
2024-03-02T09:45:04.748Z,84.08
2024-03-02T09:50:08.580Z,82.37
2024-03-02T09:55:10.809Z,82.45
2024-03-02T10:00:16.404Z,82.24
2024-03-02T10:05:31.044Z,81.82
2024-03-02T10:10:44.605Z,80.85
2024-03-02T10:15:47.950Z,79.62
2024-03-02T10:20:49.971Z,79.38
2024-03-02T10:25:57.843Z,78.46
2024-03-02T10:31:00.454Z,76.49
2024-03-02T10:36:03.443Z,75.74
2024-03-02T10:41:05.907Z,74.65
2024-03-02T10:46:07.755Z,74.70
2024-03-02T10:51:09.593Z,72.85
2024-03-02T10:56:23.622Z,70.66
2024-03-02T11:01:26.658Z,71.02
2024-03-02T11:06:29.886Z,69.90
2024-03-02T11:11:37.284Z,69.26
2024-03-02T11:16:40.786Z,68.09
2024-03-02T11:21:43.388Z,67.35
2024-03-02T11:26:45.155Z,67.27
2024-03-02T11:31:59.376Z,67.97
2024-03-02T11:37:05.050Z,66.91
2024-03-02T11:42:09.553Z,65.81
2024-03-02T11:47:15.352Z,65.80
2024-03-02T11:52:19.354Z,64.49
2024-03-02T11:57:27.459Z,62.44
2024-03-02T12:02:30.437Z,61.77
2024-03-02T12:07:33.219Z,62.12
2024-03-02T12:12:34.982Z,61.45
2024-03-02T12:17:39.341Z,60.01
2024-03-02T12:22:41.162Z,61.74
2024-03-02T12:27:43.215Z,61.88
2024-03-02T12:32:45.987Z,61.30
2024-03-02T12:37:49.716Z,61.21
2024-03-02T12:42:52.908Z,58.96
2024-03-02T12:47:55.210Z,59.87
2024-03-02T12:52:57.284Z,59.19
2024-03-02T12:58:00.590Z,58.95
2024-03-02T13:03:04.695Z,58.87
2024-03-02T13:08:08.280Z,59.32
2024-03-02T13:13:10.277Z,59.31
2024-03-02T13:18:12.755Z,59.37
2024-03-02T13:23:15.307Z,56.74
2024-03-02T13:28:17.237Z,58.11
2024-03-02T13:33:23.963Z,58.37
2024-03-02T13:38:25.761Z,55.95
2024-03-02T13:43:28.252Z,57.45
2024-03-02T13:54:31.874Z,58.15
2024-03-02T13:59:34.950Z,55.98
2024-03-02T14:04:37.274Z,56.47
2024-03-02T14:09:39.164Z,57.72
2024-03-02T14:14:40.998Z,57.25
2024-03-02T14:19:42.784Z,56.89
2024-03-02T14:24:45.196Z,57.45
2024-03-02T14:29:47.089Z,57.13
2024-03-02T14:34:49.653Z,56.63
2024-03-02T14:39:51.935Z,56.08
2024-03-02T14:44:53.702Z,55.88
2024-03-02T14:49:55.596Z,55.30
2024-03-02T14:54:57.442Z,55.67
2024-03-02T14:59:59.223Z,56.02
2024-03-02T15:05:01.652Z,56.32
2024-03-02T15:10:05.644Z,56.25
2024-03-02T15:15:08.057Z,57.24
2024-03-02T15:20:10.296Z,57.14
2024-03-02T15:25:12.411Z,57.55
2024-03-02T15:30:14.896Z,57.00
2024-03-02T15:35:16.829Z,58.22
2024-03-02T15:40:18.759Z,58.08
2024-03-02T15:45:20.808Z,58.31
2024-03-02T15:50:22.760Z,58.40
2024-03-02T15:55:24.652Z,59.03
2024-03-02T16:00:26.950Z,59.09
2024-03-02T16:05:28.763Z,59.70
2024-03-02T16:10:30.547Z,60.06
2024-03-02T16:15:32.418Z,60.25
2024-03-02T16:20:35.116Z,60.80
2024-03-02T16:25:38.183Z,60.72
2024-03-02T16:30:40.069Z,61.54
2024-03-02T16:35:41.950Z,61.89
2024-03-02T16:40:43.854Z,62.46
2024-03-02T16:45:45.636Z,62.84
2024-03-02T16:50:47.486Z,63.81
2024-03-02T16:55:49.336Z,64.48
2024-03-02T17:00:51.348Z,65.30
2024-03-02T17:05:53.268Z,65.91
2024-03-02T17:10:56.110Z,66.14
2024-03-02T17:15:57.919Z,66.53
2024-03-02T17:20:59.978Z,67.09
2024-03-02T17:26:02.987Z,67.52
2024-03-02T17:31:05.266Z,67.22
2024-03-02T17:36:07.603Z,67.75
2024-03-02T17:41:12.384Z,67.48
2024-03-02T17:46:14.249Z,67.53
2024-03-02T17:51:17.474Z,66.76
2024-03-02T17:56:19.352Z,66.57
2024-03-02T18:01:21.131Z,66.38
2024-03-02T18:06:23.159Z,66.28
2024-03-02T18:11:25.718Z,66.66
2024-03-02T18:16:27.878Z,66.99
2024-03-02T18:21:30.223Z,67.41
2024-03-02T18:26:34.228Z,66.32
2024-03-02T18:31:36.940Z,66.21
2024-03-02T18:36:38.728Z,66.11
2024-03-02T18:41:40.621Z,66.30
2024-03-02T18:46:42.591Z,66.12
2024-03-02T18:51:44.346Z,65.20
2024-03-02T18:56:46.180Z,64.44
2024-03-02T19:01:48.059Z,64.73
2024-03-02T19:06:49.879Z,64.90
2024-03-02T19:11:51.685Z,64.44
2024-03-02T19:16:53.759Z,64.75
2024-03-02T19:22:02.331Z,64.79
2024-03-02T19:27:09.691Z,64.80
2024-03-02T19:32:12.597Z,65.10
2024-03-02T19:37:17.016Z,65.79
2024-03-02T19:42:18.794Z,66.40
2024-03-02T19:47:20.704Z,66.73
2024-03-02T19:52:23.641Z,67.41
2024-03-02T19:57:26.486Z,67.20
2024-03-02T20:02:28.459Z,68.74
2024-03-02T20:07:30.269Z,69.39
2024-03-02T20:12:32.203Z,69.64
2024-03-02T20:17:34.095Z,70.50
2024-03-02T20:22:36.004Z,70.27
2024-03-02T20:27:37.826Z,70.74
2024-03-02T20:32:40.135Z,70.76
2024-03-02T20:37:41.969Z,71.79
2024-03-02T20:42:43.715Z,71.87
2024-03-02T20:47:46.440Z,72.57
2024-03-02T20:52:48.679Z,73.22
2024-03-02T20:57:50.819Z,73.47
2024-03-02T21:02:52.831Z,74.03
2024-03-02T21:07:54.716Z,73.44
2024-03-02T21:13:00.262Z,73.27
2024-03-02T21:18:03.121Z,74.11
2024-03-02T21:23:05.478Z,74.42
2024-03-02T21:28:07.612Z,74.49
2024-03-02T21:33:09.784Z,75.29
2024-03-02T21:38:11.696Z,75.26
2024-03-02T21:43:13.912Z,74.96
2024-03-02T21:48:16.102Z,75.22
2024-03-02T21:53:17.943Z,75.96
2024-03-02T21:58:19.727Z,76.42
2024-03-02T22:03:21.524Z,76.46
2024-03-02T22:08:23.301Z,76.93
2024-03-02T22:13:25.128Z,77.36
2024-03-02T22:18:26.946Z,76.81
2024-03-02T22:23:28.707Z,77.90
2024-03-02T22:28:30.539Z,78.51
2024-03-02T22:33:33.333Z,78.18
2024-03-02T22:38:35.490Z,78.68
2024-03-02T22:43:37.269Z,78.32
2024-03-02T22:48:39.081Z,78.48
2024-03-02T22:53:40.967Z,78.72
2024-03-02T22:58:42.987Z,78.95
2024-03-02T23:03:44.791Z,79.62
2024-03-02T23:08:46.677Z,79.74
2024-03-02T23:13:48.439Z,79.55
2024-03-02T23:18:52.523Z,79.07
2024-03-02T23:23:54.441Z,78.94
2024-03-02T23:28:56.451Z,79.02
2024-03-02T23:34:00.622Z,79.01
2024-03-02T23:39:05.573Z,79.65
2024-03-02T23:44:09.093Z,80.39
2024-03-02T23:49:10.889Z,80.96
2024-03-02T23:54:12.727Z,81.08
2024-03-02T23:59:14.463Z,81.10
